createdAt,value
2023-05-02T00:00:40.874Z,14.80
2023-05-02T00:03:31.570Z,14.75
2023-05-02T00:06:20.937Z,14.73
2023-05-02T00:09:10.579Z,14.69
2023-05-02T00:11:59.965Z,14.64
2023-05-02T00:14:49.193Z,14.61
2023-05-02T00:17:41.327Z,14.58
2023-05-02T00:20:32.013Z,14.55
2023-05-02T00:23:21.318Z,14.51
2023-05-02T00:26:11.253Z,14.44
2023-05-02T00:29:04.609Z,14.43
2023-05-02T00:31:53.974Z,14.44
2023-05-02T00:34:43.191Z,14.43
2023-05-02T00:37:33.828Z,14.41
2023-05-02T00:40:23.108Z,14.41
2023-05-02T00:43:12.461Z,14.39
2023-05-02T00:46:01.807Z,14.39
2023-05-02T00:48:51.463Z,14.33
2023-05-02T00:51:41.372Z,14.34
2023-05-02T00:54:33.220Z,14.36
2023-05-02T00:57:22.925Z,14.31
2023-05-02T01:00:14.456Z,14.36
2023-05-02T01:03:18.319Z,14.36
2023-05-02T01:06:22.494Z,14.46
2023-05-02T01:09:26.213Z,14.45
2023-05-02T01:12:28.563Z,14.40
2023-05-02T01:15:21.876Z,14.41
2023-05-02T01:18:13.571Z,14.41
2023-05-02T01:21:09.274Z,14.36
2023-05-02T01:24:09.381Z,14.39
2023-05-02T01:27:24.482Z,14.34
2023-05-02T01:30:18.938Z,14.34
2023-05-02T01:33:13.075Z,14.32
2023-05-02T01:36:05.625Z,14.41
2023-05-02T01:38:56.902Z,14.38
2023-05-02T01:41:48.244Z,14.14
2023-05-02T01:44:39.240Z,14.21
2023-05-02T01:47:34.411Z,14.33
2023-05-02T01:50:27.225Z,14.21
2023-05-02T01:53:16.490Z,14.17
2023-05-02T01:56:06.833Z,14.15
2023-05-02T01:58:57.945Z,14.19
2023-05-02T02:01:49.535Z,14.18
2023-05-02T02:04:41.815Z,14.16
2023-05-02T02:07:33.131Z,14.10
2023-05-02T02:10:23.794Z,14.15
2023-05-02T02:13:21.030Z,14.14
2023-05-02T02:16:14.702Z,14.15
2023-05-02T02:19:09.409Z,14.19
2023-05-02T02:22:01.744Z,14.20
2023-05-02T02:24:54.524Z,14.11
2023-05-02T02:27:44.590Z,14.10
2023-05-02T02:30:34.671Z,14.03
2023-05-02T02:33:26.399Z,14.00
2023-05-02T02:36:22.899Z,13.98
2023-05-02T02:39:26.687Z,13.91
2023-05-02T02:42:26.753Z,13.89
2023-05-02T02:45:29.098Z,13.89
2023-05-02T02:48:28.712Z,13.90
2023-05-02T02:51:32.030Z,13.83
2023-05-02T02:54:27.402Z,13.84
2023-05-02T02:57:25.540Z,13.84
2023-05-02T03:00:20.576Z,13.82
2023-05-02T03:03:11.140Z,13.76
2023-05-02T03:06:01.772Z,13.79
2023-05-02T03:08:51.322Z,13.87
2023-05-02T03:11:46.193Z,13.85
2023-05-02T03:14:37.400Z,13.77
2023-05-02T03:17:27.289Z,13.85
2023-05-02T03:20:16.740Z,13.82
2023-05-02T03:23:06.087Z,13.78
2023-05-02T03:25:55.666Z,13.75
2023-05-02T03:28:49.022Z,13.68
2023-05-02T03:31:43.081Z,13.70
2023-05-02T03:34:32.408Z,13.60
2023-05-02T03:37:21.688Z,13.64
2023-05-02T03:40:11.798Z,13.56
2023-05-02T03:43:01.087Z,13.51
2023-05-02T03:45:55.221Z,13.46
2023-05-02T03:48:46.529Z,13.37
2023-05-02T03:51:36.060Z,13.44
2023-05-02T03:54:26.170Z,13.48
2023-05-02T03:57:16.987Z,13.47
2023-05-02T04:00:08.289Z,13.39
2023-05-02T04:03:12.018Z,13.49
2023-05-02T04:06:04.974Z,13.50
2023-05-02T04:08:54.310Z,13.51
2023-05-02T04:11:44.092Z,13.41
2023-05-02T04:14:35.185Z,13.07
2023-05-02T04:17:25.394Z,13.47
2023-05-02T04:20:17.016Z,13.49
2023-05-02T04:23:10.642Z,13.51
2023-05-02T04:26:00.747Z,13.50
2023-05-02T04:29:08.967Z,13.48
2023-05-02T04:31:59.096Z,13.48
2023-05-02T04:34:50.718Z,13.47
2023-05-02T04:37:42.179Z,13.43
2023-05-02T04:40:32.234Z,13.43
2023-05-02T04:43:26.364Z,13.47
2023-05-02T04:46:20.817Z,13.48
2023-05-02T04:49:10.315Z,13.48
2023-05-02T04:52:00.208Z,13.40
2023-05-02T04:54:51.044Z,13.49
2023-05-02T04:57:41.348Z,13.45
2023-05-02T05:00:34.786Z,13.54
2023-05-02T05:03:31.051Z,13.46
2023-05-02T05:06:21.036Z,13.59
2023-05-02T05:09:10.591Z,13.51
2023-05-02T05:12:02.171Z,13.53
2023-05-02T05:14:53.164Z,13.54
2023-05-02T05:17:44.890Z,13.58
2023-05-02T05:20:35.235Z,13.53
2023-05-02T05:23:27.127Z,13.59
2023-05-02T05:26:18.323Z,13.51
2023-05-02T05:29:11.741Z,13.61
2023-05-02T05:32:03.869Z,13.62
2023-05-02T05:34:54.025Z,13.64
2023-05-02T05:37:46.966Z,13.64
2023-05-02T05:40:38.748Z,13.68
2023-05-02T05:43:30.150Z,13.66
2023-05-02T05:46:21.861Z,13.70
2023-05-02T05:49:12.669Z,13.71
2023-05-02T05:52:04.841Z,13.77
2023-05-02T05:54:56.822Z,13.74
2023-05-02T05:57:47.997Z,13.78
2023-05-02T06:00:37.555Z,13.73
2023-05-02T06:03:31.177Z,13.78
2023-05-02T06:06:20.843Z,13.74
2023-05-02T06:09:10.359Z,13.73
2023-05-02T06:12:00.505Z,13.81
2023-05-02T06:14:49.800Z,13.82
2023-05-02T06:17:39.448Z,13.87
2023-05-02T06:20:30.186Z,13.90
2023-05-02T06:23:19.607Z,13.83
2023-05-02T06:26:10.194Z,13.92
2023-05-02T06:28:59.692Z,13.94
2023-05-02T06:31:51.179Z,13.95
2023-05-02T06:34:40.526Z,13.99
2023-05-02T06:37:35.795Z,14.04
2023-05-02T06:40:25.145Z,14.05
2023-05-02T06:43:15.041Z,14.08
2023-05-02T06:46:04.344Z,14.05
2023-05-02T06:48:53.865Z,13.98
2023-05-02T06:51:43.251Z,13.98
2023-05-02T06:54:34.081Z,14.02
2023-05-02T06:57:23.468Z,14.05
2023-05-02T07:00:14.725Z,14.09
2023-05-02T07:03:04.041Z,14.18
2023-05-02T07:05:53.339Z,14.24
2023-05-02T07:08:42.621Z,14.19
2023-05-02T07:11:33.218Z,14.35
2023-05-02T07:14:22.932Z,14.35
2023-05-02T07:17:12.244Z,14.39
2023-05-02T07:20:01.734Z,14.61
2023-05-02T07:22:52.437Z,14.68
2023-05-02T07:25:41.878Z,14.78
2023-05-02T07:28:32.781Z,14.83
2023-05-02T07:31:22.043Z,14.91
2023-05-02T07:34:11.368Z,15.00
2023-05-02T07:37:00.711Z,15.07
2023-05-02T07:39:50.068Z,15.16
2023-05-02T07:42:41.179Z,15.31
2023-05-02T07:45:31.917Z,15.33
2023-05-02T07:48:21.562Z,15.39
2023-05-02T07:51:11.801Z,15.50
2023-05-02T07:54:01.479Z,15.68
2023-05-02T07:56:50.891Z,16.00
2023-05-02T07:59:40.604Z,16.08
2023-05-02T08:02:31.360Z,16.52
2023-05-02T08:05:20.796Z,16.44
2023-05-02T08:08:10.146Z,16.40
2023-05-02T08:10:59.511Z,16.46
2023-05-02T08:13:48.879Z,16.60
2023-05-02T08:16:38.343Z,16.82
2023-05-02T08:19:29.230Z,17.13
2023-05-02T08:22:18.669Z,17.28
2023-05-02T08:25:08.516Z,17.28
2023-05-02T08:27:57.934Z,17.39
2023-05-02T08:30:47.333Z,17.59
2023-05-02T08:33:36.755Z,18.04
2023-05-02T08:36:28.895Z,18.31
2023-05-02T08:39:18.308Z,18.71
2023-05-02T08:42:08.937Z,18.96
2023-05-02T08:44:59.330Z,19.18
2023-05-02T08:47:49.519Z,19.25
2023-05-02T08:50:41.764Z,19.18
2023-05-02T08:53:36.562Z,19.05
2023-05-02T08:56:26.385Z,19.04
2023-05-02T08:59:15.865Z,18.88
2023-05-02T09:02:13.840Z,18.96
2023-05-02T09:05:08.924Z,19.22
2023-05-02T09:07:58.286Z,19.67
2023-05-02T09:10:49.353Z,20.03
2023-05-02T09:13:41.004Z,20.40
2023-05-02T09:16:30.814Z,20.58
2023-05-02T09:19:27.485Z,20.48
2023-05-02T09:22:25.226Z,20.38
2023-05-02T09:25:15.488Z,20.43
2023-05-02T09:28:06.673Z,20.39
2023-05-02T09:31:09.719Z,20.32
2023-05-02T09:34:08.633Z,20.17
2023-05-02T09:36:58.422Z,19.92
2023-05-02T09:40:09.343Z,19.66
2023-05-02T09:42:58.729Z,19.70
2023-05-02T09:46:00.494Z,19.76
2023-05-02T09:48:57.751Z,20.21
2023-05-02T09:51:48.154Z,20.80
2023-05-02T09:54:38.056Z,21.23
2023-05-02T09:57:42.055Z,21.50
2023-05-02T10:00:45.600Z,21.89
2023-05-02T10:03:42.311Z,22.05
2023-05-02T10:06:32.257Z,22.22
2023-05-02T10:09:22.740Z,22.33
2023-05-02T10:12:15.468Z,22.66
2023-05-02T10:15:08.094Z,22.82
2023-05-02T10:18:00.796Z,23.09
2023-05-02T10:21:00.070Z,23.04
2023-05-02T10:23:50.251Z,23.24
2023-05-02T10:26:40.258Z,23.40
2023-05-02T10:29:32.659Z,23.19
2023-05-02T10:32:23.835Z,22.98
2023-05-02T10:35:13.951Z,22.87
2023-05-02T10:38:04.920Z,22.95
2023-05-02T10:40:59.140Z,23.13
2023-05-02T10:43:50.194Z,23.06
2023-05-02T10:46:42.032Z,23.11
2023-05-02T10:49:31.458Z,22.96
2023-05-02T10:52:32.953Z,22.47
2023-05-02T10:55:25.357Z,22.06
2023-05-02T10:58:24.524Z,21.63
2023-05-02T11:01:42.266Z,21.30
2023-05-02T11:05:04.567Z,20.90
2023-05-02T11:08:31.858Z,20.44
2023-05-02T11:11:42.882Z,20.02
2023-05-02T11:14:59.614Z,19.68
2023-05-02T11:18:02.568Z,19.62
2023-05-02T11:20:51.927Z,19.41
2023-05-02T11:23:43.024Z,19.32
2023-05-02T11:26:32.928Z,19.17
2023-05-02T11:30:02.526Z,19.05
2023-05-02T11:33:20.168Z,19.01
2023-05-02T11:36:09.816Z,19.14
2023-05-02T11:38:59.089Z,19.35
2023-05-02T11:41:51.120Z,19.52
2023-05-02T11:45:09.485Z,19.61
2023-05-02T11:47:59.379Z,19.60
2023-05-02T11:50:51.398Z,19.62
2023-05-02T11:53:43.316Z,20.08
2023-05-02T11:56:32.891Z,20.38
2023-05-02T11:59:22.474Z,20.49
2023-05-02T12:02:13.673Z,20.57
2023-05-02T12:05:06.082Z,20.62
2023-05-02T12:07:55.418Z,20.62
2023-05-02T12:10:46.117Z,20.52
2023-05-02T12:13:35.545Z,20.59
2023-05-02T12:16:25.260Z,20.67
2023-05-02T12:19:16.945Z,21.16
2023-05-02T12:22:07.965Z,21.97
2023-05-02T12:24:57.584Z,22.76
2023-05-02T12:28:01.309Z,23.57
2023-05-02T12:30:54.303Z,24.41
2023-05-02T12:33:50.336Z,25.17
2023-05-02T12:36:46.259Z,25.70
2023-05-02T12:39:39.982Z,25.97
2023-05-02T12:42:29.240Z,26.28
2023-05-02T12:45:19.951Z,26.52
2023-05-02T12:48:25.024Z,26.82
2023-05-02T12:51:24.857Z,26.82
2023-05-02T12:54:23.358Z,26.71
2023-05-02T12:57:23.354Z,26.49
2023-05-02T13:00:14.294Z,26.40
2023-05-02T13:03:03.755Z,26.58
2023-05-02T13:05:56.262Z,26.46
2023-05-02T13:08:45.998Z,25.97
2023-05-02T13:11:37.100Z,25.47
2023-05-02T13:14:26.561Z,24.93
2023-05-02T13:17:16.018Z,24.52
2023-05-02T13:20:06.737Z,23.89
2023-05-02T13:22:56.360Z,23.55
2023-05-02T13:25:45.790Z,23.19
2023-05-02T13:28:37.562Z,22.92
2023-05-02T13:31:27.015Z,22.82
2023-05-02T13:34:16.503Z,22.76
2023-05-02T13:37:06.111Z,22.80
2023-05-02T13:39:55.376Z,22.92
2023-05-02T13:42:44.791Z,23.05
2023-05-02T13:45:35.800Z,23.07
2023-05-02T13:48:25.381Z,23.23
2023-05-02T13:51:14.754Z,23.09
2023-05-02T13:54:04.271Z,23.03
2023-05-02T13:56:53.716Z,22.98
2023-05-02T13:59:43.006Z,22.86
2023-05-02T14:02:33.924Z,22.72
2023-05-02T14:05:23.741Z,22.73
2023-05-02T14:08:18.328Z,22.81
2023-05-02T14:11:07.855Z,22.87
2023-05-02T14:13:58.716Z,22.96
2023-05-02T14:16:50.247Z,23.09
2023-05-02T14:19:41.902Z,23.05
2023-05-02T14:22:31.288Z,23.54
2023-05-02T14:25:20.721Z,23.66
2023-05-02T14:28:10.097Z,23.92
2023-05-02T14:31:00.043Z,24.31
2023-05-02T14:33:49.297Z,24.59
2023-05-02T14:36:39.938Z,24.87
2023-05-02T14:39:29.373Z,25.17
2023-05-02T14:42:30.050Z,25.43
2023-05-02T14:45:19.552Z,25.52
2023-05-02T14:48:08.931Z,25.50
2023-05-02T14:51:00.466Z,25.31
2023-05-02T14:53:51.189Z,25.34
2023-05-02T14:56:40.392Z,25.23
2023-05-02T14:59:31.861Z,24.92
2023-05-02T15:02:21.986Z,24.46
2023-05-02T15:05:12.800Z,24.16
2023-05-02T15:08:02.471Z,23.77
2023-05-02T15:10:54.397Z,23.61
2023-05-02T15:13:47.621Z,23.40
2023-05-02T15:16:39.362Z,23.48
2023-05-02T15:19:28.743Z,23.49
2023-05-02T15:22:18.475Z,23.60
2023-05-02T15:25:09.563Z,23.72
2023-05-02T15:28:00.623Z,23.71
2023-05-02T15:30:50.397Z,23.77
2023-05-02T15:33:40.111Z,23.73
2023-05-02T15:36:30.108Z,23.73
2023-05-02T15:39:19.414Z,23.68
2023-05-02T15:42:08.622Z,23.60
2023-05-02T15:44:59.689Z,23.46
2023-05-02T15:47:49.178Z,23.30
2023-05-02T15:50:38.642Z,23.06
2023-05-02T15:53:27.949Z,23.04
2023-05-02T15:56:17.266Z,22.98
2023-05-02T15:59:06.733Z,22.91
2023-05-02T16:01:57.554Z,22.75
2023-05-02T16:04:47.087Z,22.64
2023-05-02T16:07:36.394Z,22.63
2023-05-02T16:10:25.994Z,22.61
2023-05-02T16:13:15.343Z,22.53
2023-05-02T16:16:04.916Z,22.56
2023-05-02T16:18:55.733Z,22.53
2023-05-02T16:21:46.011Z,22.50
2023-05-02T16:24:35.323Z,22.38
2023-05-02T16:27:25.068Z,22.24
2023-05-02T16:30:15.816Z,22.13
2023-05-02T16:33:05.237Z,22.14
2023-05-02T16:36:03.843Z,22.12
2023-05-02T16:38:53.096Z,22.05
2023-05-02T16:41:42.587Z,21.94
2023-05-02T16:44:32.348Z,21.97
2023-05-02T16:47:22.158Z,21.95
2023-05-02T16:50:12.115Z,21.99
2023-05-02T16:53:03.032Z,21.93
2023-05-02T16:55:52.474Z,21.87
2023-05-02T16:58:41.797Z,21.81
2023-05-02T17:01:31.127Z,21.75
2023-05-02T17:04:20.947Z,21.61
2023-05-02T17:07:11.806Z,21.55
2023-05-02T17:10:04.712Z,21.50
2023-05-02T17:12:56.091Z,21.51
2023-05-02T17:15:45.742Z,21.40
2023-05-02T17:18:35.209Z,21.37
2023-05-02T17:21:24.653Z,21.38
2023-05-02T17:24:13.974Z,21.36
2023-05-02T17:27:04.960Z,21.29
2023-05-02T17:29:54.274Z,21.16
2023-05-02T17:32:43.815Z,20.99
2023-05-02T17:35:33.219Z,20.90
2023-05-02T17:38:22.579Z,20.86
2023-05-02T17:41:12.273Z,20.77
2023-05-02T17:44:03.287Z,20.78
2023-05-02T17:46:52.921Z,20.70
2023-05-02T17:49:42.276Z,20.76
2023-05-02T17:52:31.562Z,20.77
2023-05-02T17:55:21.380Z,20.70
2023-05-02T17:58:10.795Z,20.71
2023-05-02T18:01:09.274Z,20.66
2023-05-02T18:03:59.072Z,20.66
2023-05-02T18:06:48.595Z,20.65
2023-05-02T18:09:38.128Z,20.63
2023-05-02T18:12:27.337Z,20.51
2023-05-02T18:15:17.052Z,20.33
2023-05-02T18:18:07.886Z,20.21
2023-05-02T18:20:57.804Z,20.14
2023-05-02T18:23:47.951Z,20.01
2023-05-02T18:26:37.369Z,19.95
2023-05-02T18:29:26.890Z,19.83
2023-05-02T18:32:16.489Z,19.81
2023-05-02T18:35:11.200Z,19.70
2023-05-02T18:38:00.545Z,19.64
2023-05-02T18:40:49.768Z,19.37
2023-05-02T18:43:39.338Z,19.31
2023-05-02T18:46:28.771Z,19.21
2023-05-02T18:49:18.925Z,19.11
2023-05-02T18:52:09.731Z,19.02
2023-05-02T18:54:59.500Z,18.91
2023-05-02T18:57:49.072Z,18.82
2023-05-02T19:00:38.436Z,18.77
2023-05-02T19:03:27.918Z,18.62
2023-05-02T19:06:18.892Z,18.65
2023-05-02T19:09:09.896Z,18.52
2023-05-02T19:11:59.277Z,18.45
2023-05-02T19:14:50.516Z,18.38
2023-05-02T19:17:40.281Z,17.98
2023-05-02T19:20:30.357Z,18.07
2023-05-02T19:23:20.941Z,17.91
2023-05-02T19:26:15.429Z,17.80
2023-05-02T19:29:04.615Z,17.68
2023-05-02T19:31:54.245Z,17.48
2023-05-02T19:34:43.439Z,17.42
2023-05-02T19:37:32.880Z,17.28
2023-05-02T19:40:22.095Z,17.11
2023-05-02T19:43:12.775Z,17.01
2023-05-02T19:46:02.205Z,16.78
2023-05-02T19:48:51.619Z,16.89
2023-05-02T19:51:41.374Z,16.86
2023-05-02T19:54:31.208Z,16.76
2023-05-02T19:57:22.046Z,16.72
2023-05-02T20:00:14.428Z,16.70
2023-05-02T20:03:03.742Z,16.70
2023-05-02T20:05:53.839Z,16.66
2023-05-02T20:08:43.055Z,16.66
2023-05-02T20:11:33.248Z,16.51
2023-05-02T20:14:22.519Z,16.59
2023-05-02T20:17:13.666Z,16.55
2023-05-02T20:20:07.581Z,16.39
2023-05-02T20:22:57.222Z,16.46
2023-05-02T20:25:46.724Z,16.45
2023-05-02T20:28:36.025Z,16.44
2023-05-02T20:31:25.291Z,16.42
2023-05-02T20:34:16.652Z,16.42
2023-05-02T20:37:07.695Z,16.41
2023-05-02T20:39:57.030Z,16.45
2023-05-02T20:42:47.370Z,16.47
2023-05-02T20:45:36.952Z,16.50
2023-05-02T20:48:26.885Z,16.53
2023-05-02T20:51:17.909Z,16.55
2023-05-02T20:54:07.492Z,16.57
2023-05-02T20:56:56.803Z,16.56
2023-05-02T20:59:46.196Z,16.50
2023-05-02T21:02:35.898Z,16.55
2023-05-02T21:05:25.071Z,16.53
2023-05-02T21:08:15.736Z,16.50
2023-05-02T21:11:13.543Z,16.47
2023-05-02T21:14:02.845Z,16.43
2023-05-02T21:16:52.601Z,16.36
2023-05-02T21:19:43.254Z,16.39
2023-05-02T21:22:32.674Z,16.30
2023-05-02T21:25:24.296Z,16.25
2023-05-02T21:28:13.568Z,16.19
2023-05-02T21:31:03.625Z,16.03
2023-05-02T21:33:53.022Z,16.00
2023-05-02T21:36:43.365Z,15.93
2023-05-02T21:39:32.549Z,15.86
2023-05-02T21:42:23.196Z,15.82
2023-05-02T21:45:13.001Z,15.76
2023-05-02T21:48:02.790Z,15.62
2023-05-02T21:50:52.274Z,15.51
2023-05-02T21:53:41.993Z,15.53
2023-05-02T21:56:31.273Z,15.49
2023-05-02T21:59:22.180Z,15.45
2023-05-02T22:02:11.934Z,15.47
2023-05-02T22:05:01.615Z,15.43
2023-05-02T22:07:50.982Z,15.41
2023-05-02T22:10:42.745Z,15.35
2023-05-02T22:13:32.126Z,15.38
2023-05-02T22:16:23.478Z,15.37
2023-05-02T22:19:14.631Z,15.33
2023-05-02T22:22:03.997Z,15.36
2023-05-02T22:24:53.358Z,15.35
2023-05-02T22:27:42.876Z,15.36
2023-05-02T22:30:32.193Z,15.39
2023-05-02T22:33:25.181Z,15.39
2023-05-02T22:36:14.427Z,15.38
2023-05-02T22:39:03.636Z,15.38
2023-05-02T22:41:52.909Z,15.35
2023-05-02T22:44:52.966Z,15.30
2023-05-02T22:47:46.555Z,15.24
2023-05-02T22:50:38.734Z,15.21
2023-05-02T22:53:28.405Z,15.13
2023-05-02T22:56:17.808Z,15.07
2023-05-02T22:59:07.267Z,15.01
2023-05-02T23:01:56.660Z,14.99
2023-05-02T23:04:45.982Z,14.94
2023-05-02T23:07:36.868Z,14.83
2023-05-02T23:10:26.083Z,14.87
2023-05-02T23:13:15.348Z,14.80
2023-05-02T23:16:05.256Z,14.75
2023-05-02T23:18:54.453Z,14.70
2023-05-02T23:21:43.644Z,14.61
2023-05-02T23:24:34.348Z,14.61
2023-05-02T23:27:24.034Z,14.65
2023-05-02T23:30:13.883Z,14.60
2023-05-02T23:33:03.288Z,14.55
2023-05-02T23:35:52.823Z,14.52
2023-05-02T23:38:42.299Z,14.47
2023-05-02T23:41:32.983Z,14.41
2023-05-02T23:44:22.339Z,14.40
2023-05-02T23:47:11.819Z,14.38
2023-05-02T23:50:01.944Z,14.36
2023-05-02T23:52:51.294Z,14.36
2023-05-02T23:55:40.599Z,14.30
2023-05-02T23:58:31.477Z,14.31
